Miguel Oliver — ECLX — position and weather

sailwx.info

Track history (hours):
 
Tides and Currents Weather Stations Pressure Air Temp Water Temp Dewpoint Dewpoint Depression Visibility Wind Speed Wind Dir Waves Ship Positions

Oceanographic research ship Miguel Oliver (Spain)

Ship's website: http://www.mapa.es/es/pesca/pags/miguel_web/index.htm

Last reported at 2019-Apr-18 17:39 UTC. Time now 2019-Apr-18 20:21 UTC.
Position N 42°23' W 008°48'.

Length 70 m; draft 4.8 m.

Type: Other ship. MMSI: 225322000.

Date/timePositionNaut miles runAvg speedWind from/ knotsBaromVisibWave heightAir tempDewpointWater temp
2019-Apr-18 17:39N 42°23' W 008°48'1 2.7
2019-Apr-18 17:15N 42°23' W 008°49'2 7.4
2019-Apr-18 17:00N 42°23' W 008°52'510.2
2019-Apr-18 16:30N 42°26' W 008°57'3 5.1
2019-Apr-18 15:53N 42°29' W 008°58'1 1.0
2019-Apr-18 15:17N 42°28' W 008°58'1 4.4
2019-Apr-18 14:59N 42°30' W 008°58'4 1.8
2019-Apr-18 12:59N 42°26' W 008°60'1 1.0
2019-Apr-18 12:28N 42°27' W 008°59'2 4.0
2019-Apr-18 11:59N 42°26' W 008°57'0 0.4
2019-Apr-18 11:30N 42°26' W 008°57'510.0
2019-Apr-18 11:00N 42°28' W 009°04'4 8.5
2019-Apr-18 10:30N 42°25' W 008°59'5 0.6
2019-Apr-18 01:53N 42°20' W 009°02'2 5.7
2019-Apr-18 01:30N 42°19' W 008°60'3 5.6
2019-Apr-18 00:59N 42°19' W 008°56'2 5.0
2019-Apr-18 00:30N 42°21' W 008°53'2 4.7
2019-Apr-18 00:00N 42°23' W 008°55'0 0.0
2019-Apr-17 19:30N 42°23' W 008°55'0 0.0
2019-Apr-17 18:19N 42°23' W 008°55'0 0.0
2019-Apr-17 17:43N 42°23' W 008°55'0 0.0
2019-Apr-17 17:28N 42°23' W 008°55'0 0.0
2019-Apr-17 16:58N 42°23' W 008°55'0 0.0
2019-Apr-17 16:30N 42°23' W 008°55'0 0.0
2019-Apr-17 16:00N 42°23' W 008°55'0 0.0
2019-Apr-17 15:30N 42°23' W 008°55'0 0.0
2019-Apr-17 14:59N 42°23' W 008°55'0 0.0
2019-Apr-17 14:30N 42°23' W 008°55'0 0.0
2019-Apr-17 14:00N 42°23' W 008°55'0 0.0
2019-Apr-17 13:30N 42°23' W 008°55'0 0.0
2019-Apr-17 13:00N 42°23' W 008°55'0 0.0
2019-Apr-17 12:30N 42°23' W 008°55'0 0.0
2019-Apr-17 12:00N 42°23' W 008°55'0 0.0
2019-Apr-17 11:30N 42°23' W 008°55'1 2.5
2019-Apr-17 10:59N 42°21' W 008°54'510.7
2019-Apr-17 10:30N 42°16' W 008°56'5 9.8
2019-Apr-17 10:00N 42°17' W 009°03'610.1
2019-Apr-17 09:22N 42°16' W 009°12'1 0.7
2019-Apr-17 08:17N 42°17' W 009°13'2 4.3
2019-Apr-17 07:48N 42°15' W 009°12'1 4.2
2019-Apr-17 07:29N 42°16' W 009°12'8 1.3
2019-Apr-17 01:38N 42°13' W 009°03'1 4.2
2019-Apr-17 01:29N 42°13' W 009°02'1 2.8
2019-Apr-17 01:00N 42°12' W 009°00'2 3.1
2019-Apr-17 00:30N 42°11' W 009°02'2 3.3
2019-Apr-17 00:00N 42°10' W 009°03'2 3.0
2019-Apr-16 23:30N 42°09' W 009°05'2 3.9
2019-Apr-16 23:00N 42°07' W 009°05'1 0.5
2019-Apr-16 20:43N 42°07' W 009°06'1 4.9
2019-Apr-16 20:30N 42°07' W 009°05'2 3.8
2019-Apr-16 19:58N 42°09' W 009°03'1 2.8
2019-Apr-16 19:30N 42°10' W 009°03'1 2.8
2019-Apr-16 19:00N 42°11' W 009°04'5 9.8
2019-Apr-16 18:28N 42°11' W 009°11'3 1.2
2019-Apr-16 16:08N 42°08' W 009°12'2 9.6
2019-Apr-16 15:58N 42°08' W 009°10'2 3.4
2019-Apr-16 15:30N 42°08' W 009°07'2 3.8
2019-Apr-16 14:59N 42°08' W 009°10'1 1.1
2019-Apr-16 14:20N 42°08' W 009°09'410.0
2019-Apr-16 13:57N 42°08' W 009°04'4 9.9
2019-Apr-16 13:31N 42°08' W 008°58'2 4.4
2019-Apr-16 13:00N 42°07' W 008°55'6 3.0
2019-Apr-16 11:07N 42°02' W 008°58'3 3.1
2019-Apr-16 10:16N 42°00' W 009°01'310.3
2019-Apr-16 10:01N 42°00' W 009°04'7 0.3
2019-Apr-15 12:02N 42°04' W 008°56'010.1
2019-Apr-15 12:00N 42°04' W 008°56'4 8.8
2019-Apr-15 11:31N 42°09' W 008°56'4 7.7
2019-Apr-15 11:00N 42°11' W 008°52'5 9.1
2019-Apr-15 10:30N 42°14' W 008°47'2 3.3
2019-Apr-15 10:00N 42°14' W 008°49'3 6.6
2019-Apr-15 09:31N 42°11' W 008°51'5 9.1
2019-Apr-15 09:00N 42°15' W 008°53'5 9.1
2019-Apr-15 08:30N 42°20' W 008°53'3 6.3
2019-Apr-15 08:00N 42°23' W 008°53'3 2.7
2019-Apr-15 06:54N 42°21' W 008°50'4 9.3
2019-Apr-15 06:29N 42°20' W 008°55'3 6.6
2019-Apr-15 06:00N 42°17' W 008°54'5 9.6
2019-Apr-15 05:30N 42°17' W 009°00'5 8.8
2019-Apr-15 04:56N 42°18' W 009°07'2 1.3
2019-Apr-15 03:06N 42°17' W 009°04'0 3.4
2019-Apr-15 03:00N 42°17' W 009°04'2 3.3
2019-Apr-15 02:30N 42°17' W 009°01'1 2.5
2019-Apr-15 02:00N 42°16' W 008°60'1 2.7
2019-Apr-15 01:30N 42°16' W 008°58'1 2.4
2019-Apr-15 01:01N 42°16' W 008°56'0 0.3
2019-Apr-15 00:27N 42°16' W 008°57'2 5.4
2019-Apr-15 00:01N 42°16' W 008°60'3 5.2
2019-Apr-14 23:30N 42°16' W 009°03'8 1.1
2019-Apr-14 15:57N 42°24' W 009°05'5 9.6
2019-Apr-14 15:29N 42°24' W 008°59'2 3.7
2019-Apr-14 14:59N 42°24' W 009°01'0 0.4
2019-Apr-14 14:27N 42°24' W 009°01'2 4.2
2019-Apr-14 13:59N 42°25' W 008°59'4 7.3
2019-Apr-14 13:23N 42°26' W 009°05'  
Track history (hours):
 
Tides and Currents Weather Stations Pressure Air Temp Water Temp Dewpoint Dewpoint Depression Visibility Wind Speed Wind Dir Waves Ship Positions

Oceanographic research ship Miguel Oliver (Spain)

Ship's website: http://www.mapa.es/es/pesca/pags/miguel_web/index.htm

Last reported at 2019-Apr-18 17:39 UTC. Time now 2019-Apr-18 20:21 UTC.
Position N 42°23' W 008°48'.

Length 70 m; draft 4.8 m.

Type: Other ship. MMSI: 225322000.

Date/timePositionNaut miles runAvg speedWind from/ knotsBaromVisibWave heightAir tempDewpointWater temp
2019-Apr-18 17:39N 42°23' W 008°48'1 2.7
2019-Apr-18 17:15N 42°23' W 008°49'2 7.4
2019-Apr-18 17:00N 42°23' W 008°52'510.2
2019-Apr-18 16:30N 42°26' W 008°57'3 5.1
2019-Apr-18 15:53N 42°29' W 008°58'1 1.0
2019-Apr-18 15:17N 42°28' W 008°58'1 4.4
2019-Apr-18 14:59N 42°30' W 008°58'4 1.8
2019-Apr-18 12:59N 42°26' W 008°60'1 1.0
2019-Apr-18 12:28N 42°27' W 008°59'2 4.0
2019-Apr-18 11:59N 42°26' W 008°57'0 0.4
2019-Apr-18 11:30N 42°26' W 008°57'510.0
2019-Apr-18 11:00N 42°28' W 009°04'4 8.5
2019-Apr-18 10:30N 42°25' W 008°59'5 0.6
2019-Apr-18 01:53N 42°20' W 009°02'2 5.7
2019-Apr-18 01:30N 42°19' W 008°60'3 5.6
2019-Apr-18 00:59N 42°19' W 008°56'2 5.0
2019-Apr-18 00:30N 42°21' W 008°53'2 4.7
2019-Apr-18 00:00N 42°23' W 008°55'0 0.0
2019-Apr-17 19:30N 42°23' W 008°55'0 0.0
2019-Apr-17 18:19N 42°23' W 008°55'0 0.0
2019-Apr-17 17:43N 42°23' W 008°55'0 0.0
2019-Apr-17 17:28N 42°23' W 008°55'0 0.0
2019-Apr-17 16:58N 42°23' W 008°55'0 0.0
2019-Apr-17 16:30N 42°23' W 008°55'0 0.0
2019-Apr-17 16:00N 42°23' W 008°55'0 0.0
2019-Apr-17 15:30N 42°23' W 008°55'0 0.0
2019-Apr-17 14:59N 42°23' W 008°55'0 0.0
2019-Apr-17 14:30N 42°23' W 008°55'0 0.0
2019-Apr-17 14:00N 42°23' W 008°55'0 0.0
2019-Apr-17 13:30N 42°23' W 008°55'0 0.0
2019-Apr-17 13:00N 42°23' W 008°55'0 0.0
2019-Apr-17 12:30N 42°23' W 008°55'0 0.0
2019-Apr-17 12:00N 42°23' W 008°55'0 0.0
2019-Apr-17 11:30N 42°23' W 008°55'1 2.5
2019-Apr-17 10:59N 42°21' W 008°54'510.7
2019-Apr-17 10:30N 42°16' W 008°56'5 9.8
2019-Apr-17 10:00N 42°17' W 009°03'610.1
2019-Apr-17 09:22N 42°16' W 009°12'1 0.7
2019-Apr-17 08:17N 42°17' W 009°13'2 4.3
2019-Apr-17 07:48N 42°15' W 009°12'1 4.2
2019-Apr-17 07:29N 42°16' W 009°12'8 1.3
2019-Apr-17 01:38N 42°13' W 009°03'1 4.2
2019-Apr-17 01:29N 42°13' W 009°02'1 2.8
2019-Apr-17 01:00N 42°12' W 009°00'2 3.1
2019-Apr-17 00:30N 42°11' W 009°02'2 3.3
2019-Apr-17 00:00N 42°10' W 009°03'2 3.0
2019-Apr-16 23:30N 42°09' W 009°05'2 3.9
2019-Apr-16 23:00N 42°07' W 009°05'1 0.5
2019-Apr-16 20:43N 42°07' W 009°06'1 4.9
2019-Apr-16 20:30N 42°07' W 009°05'2 3.8
2019-Apr-16 19:58N 42°09' W 009°03'1 2.8
2019-Apr-16 19:30N 42°10' W 009°03'1 2.8
2019-Apr-16 19:00N 42°11' W 009°04'5 9.8
2019-Apr-16 18:28N 42°11' W 009°11'3 1.2
2019-Apr-16 16:08N 42°08' W 009°12'2 9.6
2019-Apr-16 15:58N 42°08' W 009°10'2 3.4
2019-Apr-16 15:30N 42°08' W 009°07'2 3.8
2019-Apr-16 14:59N 42°08' W 009°10'1 1.1
2019-Apr-16 14:20N 42°08' W 009°09'410.0
2019-Apr-16 13:57N 42°08' W 009°04'4 9.9
2019-Apr-16 13:31N 42°08' W 008°58'2 4.4
2019-Apr-16 13:00N 42°07' W 008°55'6 3.0
2019-Apr-16 11:07N 42°02' W 008°58'3 3.1
2019-Apr-16 10:16N 42°00' W 009°01'310.3
2019-Apr-16 10:01N 42°00' W 009°04'7 0.3
2019-Apr-15 12:02N 42°04' W 008°56'010.1
2019-Apr-15 12:00N 42°04' W 008°56'4 8.8
2019-Apr-15 11:31N 42°09' W 008°56'4 7.7
2019-Apr-15 11:00N 42°11' W 008°52'5 9.1
2019-Apr-15 10:30N 42°14' W 008°47'2 3.3
2019-Apr-15 10:00N 42°14' W 008°49'3 6.6
2019-Apr-15 09:31N 42°11' W 008°51'5 9.1
2019-Apr-15 09:00N 42°15' W 008°53'5 9.1
2019-Apr-15 08:30N 42°20' W 008°53'3 6.3
2019-Apr-15 08:00N 42°23' W 008°53'3 2.7
2019-Apr-15 06:54N 42°21' W 008°50'4 9.3
2019-Apr-15 06:29N 42°20' W 008°55'3 6.6
2019-Apr-15 06:00N 42°17' W 008°54'5 9.6
2019-Apr-15 05:30N 42°17' W 009°00'5 8.8
2019-Apr-15 04:56N 42°18' W 009°07'2 1.3
2019-Apr-15 03:06N 42°17' W 009°04'0 3.4
2019-Apr-15 03:00N 42°17' W 009°04'2 3.3
2019-Apr-15 02:30N 42°17' W 009°01'1 2.5
2019-Apr-15 02:00N 42°16' W 008°60'1 2.7
2019-Apr-15 01:30N 42°16' W 008°58'1 2.4
2019-Apr-15 01:01N 42°16' W 008°56'0 0.3
2019-Apr-15 00:27N 42°16' W 008°57'2 5.4
2019-Apr-15 00:01N 42°16' W 008°60'3 5.2
2019-Apr-14 23:30N 42°16' W 009°03'8 1.1
2019-Apr-14 15:57N 42°24' W 009°05'5 9.6
2019-Apr-14 15:29N 42°24' W 008°59'2 3.7
2019-Apr-14 14:59N 42°24' W 009°01'0 0.4
2019-Apr-14 14:27N 42°24' W 009°01'2 4.2
2019-Apr-14 13:59N 42°25' W 008°59'4 7.3
2019-Apr-14 13:23N 42°26' W 009°05'  

Dump ship's entire track history